sensor_id;sensor_type;location;lat;lon;timestamp;temperature;humidity
23301;DHT22;11819;51.394;12.340;2023-02-01T00:01:34;5.00;92.10
23301;DHT22;11819;51.394;12.340;2023-02-01T00:03:59;5.00;92.20
23301;DHT22;11819;51.394;12.340;2023-02-01T00:06:25;5.00;92.10
23301;DHT22;11819;51.394;12.340;2023-02-01T00:08:54;4.90;92.10
23301;DHT22;11819;51.394;12.340;2023-02-01T00:11:21;4.90;92.10
23301;DHT22;11819;51.394;12.340;2023-02-01T00:13:46;4.90;92.00
23301;DHT22;11819;51.394;12.340;2023-02-01T00:16:27;4.90;92.00
23301;DHT22;11819;51.394;12.340;2023-02-01T00:19:03;4.90;92.00
23301;DHT22;11819;51.394;12.340;2023-02-01T00:21:30;4.90;91.90
23301;DHT22;11819;51.394;12.340;2023-02-01T00:23:56;4.90;91.70
23301;DHT22;11819;51.394;12.340;2023-02-01T00:26:36;4.90;91.50
23301;DHT22;11819;51.394;12.340;2023-02-01T00:29:10;4.90;91.40
23301;DHT22;11819;51.394;12.340;2023-02-01T00:31:36;4.90;91.30
23301;DHT22;11819;51.394;12.340;2023-02-01T00:34:02;4.90;91.20
23301;DHT22;11819;51.394;12.340;2023-02-01T00:36:28;4.90;91.10
23301;DHT22;11819;51.394;12.340;2023-02-01T00:38:55;4.90;91.10
23301;DHT22;11819;51.394;12.340;2023-02-01T00:41:21;4.90;91.00
23301;DHT22;11819;51.394;12.340;2023-02-01T00:43:48;4.90;90.90
23301;DHT22;11819;51.394;12.340;2023-02-01T00:46:15;4.90;90.90
23301;DHT22;11819;51.394;12.340;2023-02-01T00:48:41;4.90;90.70
23301;DHT22;11819;51.394;12.340;2023-02-01T00:51:10;4.90;90.60
23301;DHT22;11819;51.394;12.340;2023-02-01T00:53:37;4.90;90.60
23301;DHT22;11819;51.394;12.340;2023-02-01T00:56:04;4.90;90.50
23301;DHT22;11819;51.394;12.340;2023-02-01T00:58:30;4.90;90.40
23301;DHT22;11819;51.394;12.340;2023-02-01T01:01:07;4.90;90.40
23301;DHT22;11819;51.394;12.340;2023-02-01T01:03:35;4.90;90.40
23301;DHT22;11819;51.394;12.340;2023-02-01T01:06:04;4.90;90.40
23301;DHT22;11819;51.394;12.340;2023-02-01T01:08:30;4.90;90.40
23301;DHT22;11819;51.394;12.340;2023-02-01T01:10:57;4.90;90.30
23301;DHT22;11819;51.394;12.340;2023-02-01T01:13:22;4.90;90.30
23301;DHT22;11819;51.394;12.340;2023-02-01T01:15:48;4.90;90.20
23301;DHT22;11819;51.394;12.340;2023-02-01T01:18:14;4.90;90.20
23301;DHT22;11819;51.394;12.340;2023-02-01T01:20:40;4.90;90.20
23301;DHT22;11819;51.394;12.340;2023-02-01T01:23:07;4.90;90.20
23301;DHT22;11819;51.394;12.340;2023-02-01T01:25:37;5.00;90.20
23301;DHT22;11819;51.394;12.340;2023-02-01T01:28:04;5.00;90.20
23301;DHT22;11819;51.394;12.340;2023-02-01T01:30:30;5.00;90.20
23301;DHT22;11819;51.394;12.340;2023-02-01T01:32:56;5.00;90.20
23301;DHT22;11819;51.394;12.340;2023-02-01T01:35:21;5.00;90.20
23301;DHT22;11819;51.394;12.340;2023-02-01T01:37:47;5.00;90.30
23301;DHT22;11819;51.394;12.340;2023-02-01T01:40:13;5.00;90.50
23301;DHT22;11819;51.394;12.340;2023-02-01T01:42:42;5.00;90.60
23301;DHT22;11819;51.394;12.340;2023-02-01T01:45:24;4.90;90.80
23301;DHT22;11819;51.394;12.340;2023-02-01T01:47:53;4.90;90.90
23301;DHT22;11819;51.394;12.340;2023-02-01T01:50:27;4.80;91.10
23301;DHT22;11819;51.394;12.340;2023-02-01T01:52:55;4.80;91.20
23301;DHT22;11819;51.394;12.340;2023-02-01T01:55:24;4.80;91.30
23301;DHT22;11819;51.394;12.340;2023-02-01T01:57:59;4.80;91.30
23301;DHT22;11819;51.394;12.340;2023-02-01T02:00:26;4.80;91.30
23301;DHT22;11819;51.394;12.340;2023-02-01T02:02:58;4.80;91.30
23301;DHT22;11819;51.394;12.340;2023-02-01T02:05:24;4.80;91.40
23301;DHT22;11819;51.394;12.340;2023-02-01T02:07:53;4.80;91.40
23301;DHT22;11819;51.394;12.340;2023-02-01T02:10:19;4.80;91.40
23301;DHT22;11819;51.394;12.340;2023-02-01T02:12:47;4.80;91.30
23301;DHT22;11819;51.394;12.340;2023-02-01T02:15:16;4.80;91.30
23301;DHT22;11819;51.394;12.340;2023-02-01T02:18:09;4.80;91.30
23301;DHT22;11819;51.394;12.340;2023-02-01T02:20:52;4.80;91.30
23301;DHT22;11819;51.394;12.340;2023-02-01T02:25:55;4.80;91.40
23301;DHT22;11819;51.394;12.340;2023-02-01T02:36:57;4.70;91.30
23301;DHT22;11819;51.394;12.340;2023-02-01T02:39:50;4.70;91.30
23301;DHT22;11819;51.394;12.340;2023-02-01T02:45:23;4.80;91.30
23301;DHT22;11819;51.394;12.340;2023-02-01T02:48:22;4.80;91.30
23301;DHT22;11819;51.394;12.340;2023-02-01T02:53:58;4.80;91.30
23301;DHT22;11819;51.394;12.340;2023-02-01T02:56:48;4.80;91.30
23301;DHT22;11819;51.394;12.340;2023-02-01T02:59:34;4.80;91.30
23301;DHT22;11819;51.394;12.340;2023-02-01T03:02:22;4.80;91.30
23301;DHT22;11819;51.394;12.340;2023-02-01T03:05:09;4.80;91.30
23301;DHT22;11819;51.394;12.340;2023-02-01T03:10:24;4.80;91.30
23301;DHT22;11819;51.394;12.340;2023-02-01T03:12:52;4.80;91.30
23301;DHT22;11819;51.394;12.340;2023-02-01T03:15:29;4.80;91.30
23301;DHT22;11819;51.394;12.340;2023-02-01T03:17:58;4.90;91.30
23301;DHT22;11819;51.394;12.340;2023-02-01T03:20:25;4.90;91.20
23301;DHT22;11819;51.394;12.340;2023-02-01T03:22:53;4.90;91.20
23301;DHT22;11819;51.394;12.340;2023-02-01T03:25:25;4.90;91.10
23301;DHT22;11819;51.394;12.340;2023-02-01T03:28:07;5.00;91.00
23301;DHT22;11819;51.394;12.340;2023-02-01T03:30:42;5.00;91.00
23301;DHT22;11819;51.394;12.340;2023-02-01T03:33:13;5.00;90.90
23301;DHT22;11819;51.394;12.340;2023-02-01T03:39:13;5.00;90.90
23301;DHT22;11819;51.394;12.340;2023-02-01T03:41:50;5.00;90.80
23301;DHT22;11819;51.394;12.340;2023-02-01T03:44:26;5.00;90.80
23301;DHT22;11819;51.394;12.340;2023-02-01T03:46:56;5.00;90.80
23301;DHT22;11819;51.394;12.340;2023-02-01T03:49:27;5.00;90.70
23301;DHT22;11819;51.394;12.340;2023-02-01T03:51:57;5.00;90.70
23301;DHT22;11819;51.394;12.340;2023-02-01T03:54:25;5.00;90.80
23301;DHT22;11819;51.394;12.340;2023-02-01T03:56:54;5.00;90.70
23301;DHT22;11819;51.394;12.340;2023-02-01T03:59:24;5.00;90.70
23301;DHT22;11819;51.394;12.340;2023-02-01T04:01:50;4.90;90.70
23301;DHT22;11819;51.394;12.340;2023-02-01T04:04:15;4.90;90.70
23301;DHT22;11819;51.394;12.340;2023-02-01T04:06:49;4.90;90.70
23301;DHT22;11819;51.394;12.340;2023-02-01T04:09:16;4.90;90.70
23301;DHT22;11819;51.394;12.340;2023-02-01T04:11:43;4.90;90.70
23301;DHT22;11819;51.394;12.340;2023-02-01T04:14:10;4.90;90.70
23301;DHT22;11819;51.394;12.340;2023-02-01T04:16:36;4.80;90.60
23301;DHT22;11819;51.394;12.340;2023-02-01T04:19:02;4.90;90.70
23301;DHT22;11819;51.394;12.340;2023-02-01T04:21:29;4.80;90.60
23301;DHT22;11819;51.394;12.340;2023-02-01T04:23:55;4.80;90.60
23301;DHT22;11819;51.394;12.340;2023-02-01T04:26:21;4.80;90.60
23301;DHT22;11819;51.394;12.340;2023-02-01T04:28:47;4.80;90.60
23301;DHT22;11819;51.394;12.340;2023-02-01T04:31:17;4.90;91.00
23301;DHT22;11819;51.394;12.340;2023-02-01T04:33:44;4.90;90.50
23301;DHT22;11819;51.394;12.340;2023-02-01T04:36:09;4.80;90.50
23301;DHT22;11819;51.394;12.340;2023-02-01T04:38:35;4.80;90.50
23301;DHT22;11819;51.394;12.340;2023-02-01T04:41:01;4.80;90.40
23301;DHT22;11819;51.394;12.340;2023-02-01T04:43:27;4.90;90.40
23301;DHT22;11819;51.394;12.340;2023-02-01T04:45:54;4.90;90.40
23301;DHT22;11819;51.394;12.340;2023-02-01T04:48:20;4.90;90.30
23301;DHT22;11819;51.394;12.340;2023-02-01T04:50:48;4.90;90.30
23301;DHT22;11819;51.394;12.340;2023-02-01T04:53:14;4.90;90.20
23301;DHT22;11819;51.394;12.340;2023-02-01T04:55:42;4.90;90.10
23301;DHT22;11819;51.394;12.340;2023-02-01T04:58:08;4.90;90.10
23301;DHT22;11819;51.394;12.340;2023-02-01T05:00:36;5.00;90.10
23301;DHT22;11819;51.394;12.340;2023-02-01T05:03:02;4.90;90.10
23301;DHT22;11819;51.394;12.340;2023-02-01T05:05:28;5.00;90.00
23301;DHT22;11819;51.394;12.340;2023-02-01T05:07:54;5.00;90.00
23301;DHT22;11819;51.394;12.340;2023-02-01T05:10:20;5.00;89.90
23301;DHT22;11819;51.394;12.340;2023-02-01T05:12:46;5.00;89.70
23301;DHT22;11819;51.394;12.340;2023-02-01T05:15:30;5.00;89.80
23301;DHT22;11819;51.394;12.340;2023-02-01T05:17:56;5.00;89.70
23301;DHT22;11819;51.394;12.340;2023-02-01T05:20:23;5.00;89.70
23301;DHT22;11819;51.394;12.340;2023-02-01T05:22:48;4.90;89.60
23301;DHT22;11819;51.394;12.340;2023-02-01T05:25:14;4.90;89.70
23301;DHT22;11819;51.394;12.340;2023-02-01T05:27:39;4.90;89.80
23301;DHT22;11819;51.394;12.340;2023-02-01T05:30:06;5.00;90.00
23301;DHT22;11819;51.394;12.340;2023-02-01T05:32:32;4.90;89.90
23301;DHT22;11819;51.394;12.340;2023-02-01T05:34:57;4.90;90.00
23301;DHT22;11819;51.394;12.340;2023-02-01T05:37:23;4.90;90.10
23301;DHT22;11819;51.394;12.340;2023-02-01T05:39:50;5.00;90.10
23301;DHT22;11819;51.394;12.340;2023-02-01T05:42:17;5.00;90.20
23301;DHT22;11819;51.394;12.340;2023-02-01T05:44:42;5.00;90.60
23301;DHT22;11819;51.394;12.340;2023-02-01T05:47:09;5.00;90.20
23301;DHT22;11819;51.394;12.340;2023-02-01T05:49:35;5.00;90.70
23301;DHT22;11819;51.394;12.340;2023-02-01T05:52:01;5.00;90.30
23301;DHT22;11819;51.394;12.340;2023-02-01T05:54:26;4.90;90.40
23301;DHT22;11819;51.394;12.340;2023-02-01T05:56:53;4.90;90.40
23301;DHT22;11819;51.394;12.340;2023-02-01T05:59:19;4.90;90.40
23301;DHT22;11819;51.394;12.340;2023-02-01T06:01:44;4.90;90.50
23301;DHT22;11819;51.394;12.340;2023-02-01T06:04:10;4.90;90.50
23301;DHT22;11819;51.394;12.340;2023-02-01T06:06:35;4.90;90.50
23301;DHT22;11819;51.394;12.340;2023-02-01T06:09:03;4.90;90.50
23301;DHT22;11819;51.394;12.340;2023-02-01T06:11:29;4.90;90.50
23301;DHT22;11819;51.394;12.340;2023-02-01T06:13:54;4.90;90.60
23301;DHT22;11819;51.394;12.340;2023-02-01T06:16:21;4.90;90.70
23301;DHT22;11819;51.394;12.340;2023-02-01T06:18:47;4.90;90.70
23301;DHT22;11819;51.394;12.340;2023-02-01T06:21:12;4.90;90.70
23301;DHT22;11819;51.394;12.340;2023-02-01T06:23:39;4.90;90.80
23301;DHT22;11819;51.394;12.340;2023-02-01T06:26:06;4.90;90.80
23301;DHT22;11819;51.394;12.340;2023-02-01T06:28:35;5.00;90.90
23301;DHT22;11819;51.394;12.340;2023-02-01T06:31:05;5.00;90.90
23301;DHT22;11819;51.394;12.340;2023-02-01T06:33:33;5.00;90.90
23301;DHT22;11819;51.394;12.340;2023-02-01T06:36:02;5.00;90.90
23301;DHT22;11819;51.394;12.340;2023-02-01T06:38:29;5.00;90.90
23301;DHT22;11819;51.394;12.340;2023-02-01T06:40:57;5.00;90.90
23301;DHT22;11819;51.394;12.340;2023-02-01T06:43:24;5.00;90.80
23301;DHT22;11819;51.394;12.340;2023-02-01T06:45:51;5.00;90.80
23301;DHT22;11819;51.394;12.340;2023-02-01T06:48:17;5.00;90.70
23301;DHT22;11819;51.394;12.340;2023-02-01T06:50:43;5.00;90.70
23301;DHT22;11819;51.394;12.340;2023-02-01T06:53:09;5.00;90.60
23301;DHT22;11819;51.394;12.340;2023-02-01T06:55:35;5.00;90.60
23301;DHT22;11819;51.394;12.340;2023-02-01T06:58:00;5.00;90.60
23301;DHT22;11819;51.394;12.340;2023-02-01T07:00:28;5.10;90.60
23301;DHT22;11819;51.394;12.340;2023-02-01T07:02:54;5.10;90.50
23301;DHT22;11819;51.394;12.340;2023-02-01T07:05:20;5.10;90.50
23301;DHT22;11819;51.394;12.340;2023-02-01T07:07:46;5.10;90.50
23301;DHT22;11819;51.394;12.340;2023-02-01T07:10:14;5.10;90.40
23301;DHT22;11819;51.394;12.340;2023-02-01T07:12:39;5.20;90.40
23301;DHT22;11819;51.394;12.340;2023-02-01T07:15:06;5.10;90.40
23301;DHT22;11819;51.394;12.340;2023-02-01T07:17:33;5.20;90.40
23301;DHT22;11819;51.394;12.340;2023-02-01T07:19:58;5.20;90.40
23301;DHT22;11819;51.394;12.340;2023-02-01T07:22:25;5.20;90.30
23301;DHT22;11819;51.394;12.340;2023-02-01T07:24:51;5.20;90.20
23301;DHT22;11819;51.394;12.340;2023-02-01T07:27:17;5.20;90.20
23301;DHT22;11819;51.394;12.340;2023-02-01T07:29:42;5.30;90.20
23301;DHT22;11819;51.394;12.340;2023-02-01T07:32:08;5.30;90.10
23301;DHT22;11819;51.394;12.340;2023-02-01T07:34:33;5.30;90.10
23301;DHT22;11819;51.394;12.340;2023-02-01T07:37:00;5.30;90.10
23301;DHT22;11819;51.394;12.340;2023-02-01T07:39:25;5.30;90.10
23301;DHT22;11819;51.394;12.340;2023-02-01T07:41:54;5.40;90.00
23301;DHT22;11819;51.394;12.340;2023-02-01T07:44:20;5.40;89.80
23301;DHT22;11819;51.394;12.340;2023-02-01T07:46:48;5.40;89.80
23301;DHT22;11819;51.394;12.340;2023-02-01T07:49:14;5.40;89.60
23301;DHT22;11819;51.394;12.340;2023-02-01T07:51:39;5.40;89.60
23301;DHT22;11819;51.394;12.340;2023-02-01T07:54:05;5.50;89.70
23301;DHT22;11819;51.394;12.340;2023-02-01T07:56:30;5.50;89.60
23301;DHT22;11819;51.394;12.340;2023-02-01T07:58:56;5.50;89.70
23301;DHT22;11819;51.394;12.340;2023-02-01T08:01:25;5.50;89.50
23301;DHT22;11819;51.394;12.340;2023-02-01T08:04:03;5.50;89.50
23301;DHT22;11819;51.394;12.340;2023-02-01T08:06:31;5.60;89.40
23301;DHT22;11819;51.394;12.340;2023-02-01T08:08:57;5.60;89.30
23301;DHT22;11819;51.394;12.340;2023-02-01T08:11:24;5.60;89.30
23301;DHT22;11819;51.394;12.340;2023-02-01T08:13:50;5.60;89.20
23301;DHT22;11819;51.394;12.340;2023-02-01T08:16:17;5.60;89.30
23301;DHT22;11819;51.394;12.340;2023-02-01T08:18:42;5.60;89.50
23301;DHT22;11819;51.394;12.340;2023-02-01T08:21:20;5.60;89.90
23301;DHT22;11819;51.394;12.340;2023-02-01T08:23:49;5.60;89.90
23301;DHT22;11819;51.394;12.340;2023-02-01T08:26:23;5.60;90.00
23301;DHT22;11819;51.394;12.340;2023-02-01T08:28:58;5.60;90.10
23301;DHT22;11819;51.394;12.340;2023-02-01T08:31:26;5.60;90.30
23301;DHT22;11819;51.394;12.340;2023-02-01T08:33:58;5.50;90.50
23301;DHT22;11819;51.394;12.340;2023-02-01T08:36:27;5.50;90.70
23301;DHT22;11819;51.394;12.340;2023-02-01T08:38:53;5.50;90.70
23301;DHT22;11819;51.394;12.340;2023-02-01T08:41:21;5.50;90.90
23301;DHT22;11819;51.394;12.340;2023-02-01T08:43:47;5.50;91.30
23301;DHT22;11819;51.394;12.340;2023-02-01T08:46:14;5.40;91.70
23301;DHT22;11819;51.394;12.340;2023-02-01T08:48:40;5.30;92.20
23301;DHT22;11819;51.394;12.340;2023-02-01T08:51:08;5.30;92.60
23301;DHT22;11819;51.394;12.340;2023-02-01T08:53:34;5.20;93.10
23301;DHT22;11819;51.394;12.340;2023-02-01T08:56:01;5.10;93.40
23301;DHT22;11819;51.394;12.340;2023-02-01T08:58:28;5.10;93.70
23301;DHT22;11819;51.394;12.340;2023-02-01T09:00:54;5.00;93.70
23301;DHT22;11819;51.394;12.340;2023-02-01T09:03:20;5.00;93.80
23301;DHT22;11819;51.394;12.340;2023-02-01T09:05:47;4.90;94.00
23301;DHT22;11819;51.394;12.340;2023-02-01T09:08:13;4.90;94.30
23301;DHT22;11819;51.394;12.340;2023-02-01T09:10:41;4.90;94.60
23301;DHT22;11819;51.394;12.340;2023-02-01T09:13:07;4.90;94.80
23301;DHT22;11819;51.394;12.340;2023-02-01T09:15:33;4.90;94.90
23301;DHT22;11819;51.394;12.340;2023-02-01T09:17:59;4.90;95.00
23301;DHT22;11819;51.394;12.340;2023-02-01T09:20:25;4.90;95.10
23301;DHT22;11819;51.394;12.340;2023-02-01T09:22:54;4.90;95.10
23301;DHT22;11819;51.394;12.340;2023-02-01T09:25:20;4.90;95.10
23301;DHT22;11819;51.394;12.340;2023-02-01T09:27:46;5.00;95.20
23301;DHT22;11819;51.394;12.340;2023-02-01T09:30:13;4.90;95.20
23301;DHT22;11819;51.394;12.340;2023-02-01T09:32:38;5.00;95.30
23301;DHT22;11819;51.394;12.340;2023-02-01T09:35:04;5.00;95.30
23301;DHT22;11819;51.394;12.340;2023-02-01T09:37:31;5.00;95.30
23301;DHT22;11819;51.394;12.340;2023-02-01T09:39:58;5.10;95.20
23301;DHT22;11819;51.394;12.340;2023-02-01T09:45:20;5.10;95.50
23301;DHT22;11819;51.394;12.340;2023-02-01T09:47:53;5.10;95.10
23301;DHT22;11819;51.394;12.340;2023-02-01T09:50:31;5.20;95.10
23301;DHT22;11819;51.394;12.340;2023-02-01T09:55:39;5.30;94.90
23301;DHT22;11819;51.394;12.340;2023-02-01T09:58:09;5.30;94.80
23301;DHT22;11819;51.394;12.340;2023-02-01T10:00:39;5.40;94.80
23301;DHT22;11819;51.394;12.340;2023-02-01T10:03:11;5.40;94.60
23301;DHT22;11819;51.394;12.340;2023-02-01T10:17:43;5.80;94.00
23301;DHT22;11819;51.394;12.340;2023-02-01T10:27:56;6.00;93.40
23301;DHT22;11819;51.394;12.340;2023-02-01T10:30:33;6.10;92.80
23301;DHT22;11819;51.394;12.340;2023-02-01T10:33:26;6.10;92.30
23301;DHT22;11819;51.394;12.340;2023-02-01T10:36:42;6.20;92.00
23301;DHT22;11819;51.394;12.340;2023-02-01T10:38:48;6.20;91.50
23301;DHT22;11819;51.394;12.340;2023-02-01T10:41:19;6.30;91.50
23301;DHT22;11819;51.394;12.340;2023-02-01T10:43:48;6.30;91.50
23301;DHT22;11819;51.394;12.340;2023-02-01T10:46:16;6.40;91.30
23301;DHT22;11819;51.394;12.340;2023-02-01T10:48:43;6.40;91.00
23301;DHT22;11819;51.394;12.340;2023-02-01T10:51:20;6.50;90.40
23301;DHT22;11819;51.394;12.340;2023-02-01T10:53:50;6.50;89.30
23301;DHT22;11819;51.394;12.340;2023-02-01T10:56:23;6.50;88.30
23301;DHT22;11819;51.394;12.340;2023-02-01T10:58:49;6.50;88.20
23301;DHT22;11819;51.394;12.340;2023-02-01T11:01:22;6.50;88.30
23301;DHT22;11819;51.394;12.340;2023-02-01T11:03:54;6.50;89.00
23301;DHT22;11819;51.394;12.340;2023-02-01T11:08:54;6.70;89.30
23301;DHT22;11819;51.394;12.340;2023-02-01T11:11:21;6.70;88.70
23301;DHT22;11819;51.394;12.340;2023-02-01T11:13:55;6.80;88.20
23301;DHT22;11819;51.394;12.340;2023-02-01T11:16:21;6.90;88.30
23301;DHT22;11819;51.394;12.340;2023-02-01T11:18:53;7.00;86.60
23301;DHT22;11819;51.394;12.340;2023-02-01T11:21:20;7.10;86.20
23301;DHT22;11819;51.394;12.340;2023-02-01T11:23:48;7.10;85.50
23301;DHT22;11819;51.394;12.340;2023-02-01T11:26:23;7.10;85.80
23301;DHT22;11819;51.394;12.340;2023-02-01T11:29:11;7.00;85.90
23301;DHT22;11819;51.394;12.340;2023-02-01T11:31:39;7.00;85.80
23301;DHT22;11819;51.394;12.340;2023-02-01T11:34:15;7.00;85.90
23301;DHT22;11819;51.394;12.340;2023-02-01T11:36:42;6.90;86.10
23301;DHT22;11819;51.394;12.340;2023-02-01T11:41:55;7.00;86.90
23301;DHT22;11819;51.394;12.340;2023-02-01T11:44:32;7.00;86.60
23301;DHT22;11819;51.394;12.340;2023-02-01T11:49:51;7.10;85.40
23301;DHT22;11819;51.394;12.340;2023-02-01T12:01:07;7.20;84.00
23301;DHT22;11819;51.394;12.340;2023-02-01T12:04:10;7.20;83.50
23301;DHT22;11819;51.394;12.340;2023-02-01T12:06:57;7.20;82.90
23301;DHT22;11819;51.394;12.340;2023-02-01T12:12:45;7.20;82.90
23301;DHT22;11819;51.394;12.340;2023-02-01T12:21:06;7.20;82.90
23301;DHT22;11819;51.394;12.340;2023-02-01T12:24:08;7.30;83.10
23301;DHT22;11819;51.394;12.340;2023-02-01T12:38:25;7.40;81.20
23301;DHT22;11819;51.394;12.340;2023-02-01T12:41:12;7.40;80.30
23301;DHT22;11819;51.394;12.340;2023-02-01T12:43:49;7.40;80.10
23301;DHT22;11819;51.394;12.340;2023-02-01T12:46:26;7.40;79.30
23301;DHT22;11819;51.394;12.340;2023-02-01T12:49:04;7.40;79.30
23301;DHT22;11819;51.394;12.340;2023-02-01T12:51:40;7.40;78.70
23301;DHT22;11819;51.394;12.340;2023-02-01T12:54:31;7.40;78.40
23301;DHT22;11819;51.394;12.340;2023-02-01T12:57:08;7.40;79.20
23301;DHT22;11819;51.394;12.340;2023-02-01T12:59:44;7.40;78.90
23301;DHT22;11819;51.394;12.340;2023-02-01T13:02:25;7.40;78.60
23301;DHT22;11819;51.394;12.340;2023-02-01T13:04:59;7.40;78.70
23301;DHT22;11819;51.394;12.340;2023-02-01T13:07:40;7.40;78.40
23301;DHT22;11819;51.394;12.340;2023-02-01T13:15:56;7.30;76.10
23301;DHT22;11819;51.394;12.340;2023-02-01T13:18:34;7.30;76.10
23301;DHT22;11819;51.394;12.340;2023-02-01T13:21:13;7.30;76.20
23301;DHT22;11819;51.394;12.340;2023-02-01T13:23:41;7.30;76.60
23301;DHT22;11819;51.394;12.340;2023-02-01T13:26:10;7.30;76.40
23301;DHT22;11819;51.394;12.340;2023-02-01T13:28:49;7.20;76.50
23301;DHT22;11819;51.394;12.340;2023-02-01T13:40:17;7.20;76.40
23301;DHT22;11819;51.394;12.340;2023-02-01T13:42:50;7.20;75.70
23301;DHT22;11819;51.394;12.340;2023-02-01T13:45:20;7.20;75.50
23301;DHT22;11819;51.394;12.340;2023-02-01T13:47:49;7.20;75.60
23301;DHT22;11819;51.394;12.340;2023-02-01T13:55:38;7.30;75.50
23301;DHT22;11819;51.394;12.340;2023-02-01T14:03:59;7.30;75.30
23301;DHT22;11819;51.394;12.340;2023-02-01T14:11:50;7.30;75.30
23301;DHT22;11819;51.394;12.340;2023-02-01T14:19:24;7.20;77.80
23301;DHT22;11819;51.394;12.340;2023-02-01T14:21:55;7.20;78.70
23301;DHT22;11819;51.394;12.340;2023-02-01T14:24:32;7.20;79.40
23301;DHT22;11819;51.394;12.340;2023-02-01T14:27:00;7.20;79.70
23301;DHT22;11819;51.394;12.340;2023-02-01T14:29:37;7.20;80.00
23301;DHT22;11819;51.394;12.340;2023-02-01T14:32:17;7.20;79.70
23301;DHT22;11819;51.394;12.340;2023-02-01T14:43:07;7.30;80.90
23301;DHT22;11819;51.394;12.340;2023-02-01T14:50:25;7.30;79.80
23301;DHT22;11819;51.394;12.340;2023-02-01T14:58:35;7.20;79.70
23301;DHT22;11819;51.394;12.340;2023-02-01T15:01:06;7.20;79.60
23301;DHT22;11819;51.394;12.340;2023-02-01T15:06:29;7.10;80.90
23301;DHT22;11819;51.394;12.340;2023-02-01T15:12:08;7.00;82.90
23301;DHT22;11819;51.394;12.340;2023-02-01T15:15:03;6.90;84.10
23301;DHT22;11819;51.394;12.340;2023-02-01T15:17:31;6.80;84.50
23301;DHT22;11819;51.394;12.340;2023-02-01T15:20:18;6.80;84.90
23301;DHT22;11819;51.394;12.340;2023-02-01T15:23:05;6.70;85.40
23301;DHT22;11819;51.394;12.340;2023-02-01T15:25:35;6.70;85.30
23301;DHT22;11819;51.394;12.340;2023-02-01T15:28:02;6.60;85.40
23301;DHT22;11819;51.394;12.340;2023-02-01T15:30:31;6.60;85.10
23301;DHT22;11819;51.394;12.340;2023-02-01T15:33:17;6.60;85.40
23301;DHT22;11819;51.394;12.340;2023-02-01T15:35:46;6.60;85.70
23301;DHT22;11819;51.394;12.340;2023-02-01T15:41:15;6.50;86.10
23301;DHT22;11819;51.394;12.340;2023-02-01T15:44:02;6.50;86.30
23301;DHT22;11819;51.394;12.340;2023-02-01T15:46:39;6.50;86.20
23301;DHT22;11819;51.394;12.340;2023-02-01T15:51:44;6.50;85.50
23301;DHT22;11819;51.394;12.340;2023-02-01T15:54:22;6.60;85.90
23301;DHT22;11819;51.394;12.340;2023-02-01T15:56:54;6.50;87.00
23301;DHT22;11819;51.394;12.340;2023-02-01T15:59:24;6.60;88.20
23301;DHT22;11819;51.394;12.340;2023-02-01T16:01:51;6.50;89.50
23301;DHT22;11819;51.394;12.340;2023-02-01T16:10:44;4.20;91.60
23301;DHT22;11819;51.394;12.340;2023-02-01T16:13:11;3.80;93.10
23301;DHT22;11819;51.394;12.340;2023-02-01T16:15:37;3.50;94.10
23301;DHT22;11819;51.394;12.340;2023-02-01T16:18:05;3.40;94.80
23301;DHT22;11819;51.394;12.340;2023-02-01T16:20:30;3.40;95.30
23301;DHT22;11819;51.394;12.340;2023-02-01T16:22:56;3.40;95.50
23301;DHT22;11819;51.394;12.340;2023-02-01T16:25:22;3.40;95.70
23301;DHT22;11819;51.394;12.340;2023-02-01T16:27:48;3.50;95.60
23301;DHT22;11819;51.394;12.340;2023-02-01T16:30:15;3.50;95.50
23301;DHT22;11819;51.394;12.340;2023-02-01T16:32:41;3.50;95.50
23301;DHT22;11819;51.394;12.340;2023-02-01T16:35:20;3.60;95.50
23301;DHT22;11819;51.394;12.340;2023-02-01T16:37:46;3.60;95.50
23301;DHT22;11819;51.394;12.340;2023-02-01T16:40:14;3.60;95.30
23301;DHT22;11819;51.394;12.340;2023-02-01T16:42:40;3.70;95.20
23301;DHT22;11819;51.394;12.340;2023-02-01T16:45:07;3.70;95.00
23301;DHT22;11819;51.394;12.340;2023-02-01T16:47:37;3.70;94.80
23301;DHT22;11819;51.394;12.340;2023-02-01T16:50:04;3.70;94.70
23301;DHT22;11819;51.394;12.340;2023-02-01T16:52:44;3.70;94.50
23301;DHT22;11819;51.394;12.340;2023-02-01T16:55:14;3.70;94.60
23301;DHT22;11819;51.394;12.340;2023-02-01T16:57:42;3.80;94.50
23301;DHT22;11819;51.394;12.340;2023-02-01T17:00:11;3.80;94.40
23301;DHT22;11819;51.394;12.340;2023-02-01T17:02:41;3.80;94.30
23301;DHT22;11819;51.394;12.340;2023-02-01T17:05:08;3.80;94.40
23301;DHT22;11819;51.394;12.340;2023-02-01T17:07:35;3.90;94.40
23301;DHT22;11819;51.394;12.340;2023-02-01T17:10:04;3.90;94.40
23301;DHT22;11819;51.394;12.340;2023-02-01T17:12:32;3.90;94.40
23301;DHT22;11819;51.394;12.340;2023-02-01T17:14:58;4.00;94.40
23301;DHT22;11819;51.394;12.340;2023-02-01T17:17:33;4.00;94.30
23301;DHT22;11819;51.394;12.340;2023-02-01T17:20:00;4.10;94.20
23301;DHT22;11819;51.394;12.340;2023-02-01T17:22:27;4.10;94.20
23301;DHT22;11819;51.394;12.340;2023-02-01T17:24:53;4.10;94.20
23301;DHT22;11819;51.394;12.340;2023-02-01T17:27:19;4.20;94.10
23301;DHT22;11819;51.394;12.340;2023-02-01T17:29:45;4.20;93.90
23301;DHT22;11819;51.394;12.340;2023-02-01T17:32:23;4.10;93.70
23301;DHT22;11819;51.394;12.340;2023-02-01T17:34:51;4.10;93.70
23301;DHT22;11819;51.394;12.340;2023-02-01T17:37:31;4.00;93.80
23301;DHT22;11819;51.394;12.340;2023-02-01T17:39:57;4.00;93.80
23301;DHT22;11819;51.394;12.340;2023-02-01T17:42:24;4.00;93.90
23301;DHT22;11819;51.394;12.340;2023-02-01T17:45:39;3.90;93.90
23301;DHT22;11819;51.394;12.340;2023-02-01T17:47:57;3.90;93.90
23301;DHT22;11819;51.394;12.340;2023-02-01T17:50:26;4.00;94.00
23301;DHT22;11819;51.394;12.340;2023-02-01T17:52:52;4.00;93.90
23301;DHT22;11819;51.394;12.340;2023-02-01T17:55:21;4.00;93.80
23301;DHT22;11819;51.394;12.340;2023-02-01T17:57:48;4.00;93.90
23301;DHT22;11819;51.394;12.340;2023-02-01T18:00:15;4.00;93.80
23301;DHT22;11819;51.394;12.340;2023-02-01T18:02:43;4.10;93.60
23301;DHT22;11819;51.394;12.340;2023-02-01T18:05:39;4.10;93.60
23301;DHT22;11819;51.394;12.340;2023-02-01T18:08:08;4.00;93.60
23301;DHT22;11819;51.394;12.340;2023-02-01T18:10:34;4.00;93.60
23301;DHT22;11819;51.394;12.340;2023-02-01T18:13:02;3.90;93.60
23301;DHT22;11819;51.394;12.340;2023-02-01T18:15:29;3.90;93.70
23301;DHT22;11819;51.394;12.340;2023-02-01T18:17:55;3.80;93.90
23301;DHT22;11819;51.394;12.340;2023-02-01T18:20:23;3.80;94.00
23301;DHT22;11819;51.394;12.340;2023-02-01T18:22:50;3.70;94.10
23301;DHT22;11819;51.394;12.340;2023-02-01T18:27:50;3.70;94.30
23301;DHT22;11819;51.394;12.340;2023-02-01T18:30:21;3.70;94.30